createdAt,value
2023-05-20T00:01:49.243Z,50.60
2023-05-20T00:04:17.746Z,51.20
2023-05-20T00:06:46.164Z,51.40
2023-05-20T00:09:14.618Z,51.30
2023-05-20T00:11:42.910Z,51.40
2023-05-20T00:14:11.186Z,51.10
2023-05-20T00:16:39.531Z,51.00
2023-05-20T00:19:09.321Z,50.70
2023-05-20T00:21:37.565Z,50.40
2023-05-20T00:24:05.904Z,50.00
2023-05-20T00:26:34.135Z,49.80
2023-05-20T00:29:02.814Z,49.50
2023-05-20T00:31:31.153Z,49.40
2023-05-20T00:33:59.455Z,49.30
2023-05-20T00:36:29.258Z,49.10
2023-05-20T00:38:57.550Z,49.20
2023-05-20T00:41:26.196Z,49.20
2023-05-20T00:43:55.469Z,49.00
2023-05-20T00:46:24.484Z,48.90
2023-05-20T00:48:53.056Z,48.70
2023-05-20T00:51:21.806Z,48.60
2023-05-20T00:53:51.869Z,48.60
2023-05-20T00:56:21.559Z,48.60
2023-05-20T00:58:50.427Z,48.50
2023-05-20T01:01:18.771Z,48.60
2023-05-20T01:03:48.734Z,48.60
2023-05-20T01:06:17.091Z,48.70
2023-05-20T01:08:45.883Z,48.70
2023-05-20T01:11:21.554Z,48.80
2023-05-20T01:13:56.412Z,48.80
2023-05-20T01:16:25.784Z,49.00
2023-05-20T01:18:57.313Z,49.30
2023-05-20T01:21:26.026Z,49.20
2023-05-20T01:23:55.634Z,49.20
2023-05-20T01:26:27.085Z,49.40
2023-05-20T01:28:57.998Z,49.40
2023-05-20T01:31:30.637Z,49.60
2023-05-20T01:33:59.871Z,49.60
2023-05-20T01:36:31.957Z,49.60
2023-05-20T01:39:03.767Z,49.70
2023-05-20T01:41:34.468Z,49.80
2023-05-20T01:44:04.024Z,49.80
2023-05-20T01:46:34.614Z,49.90
2023-05-20T01:49:04.558Z,49.90
2023-05-20T01:51:35.099Z,49.90
2023-05-20T01:54:06.019Z,49.70
2023-05-20T01:56:34.307Z,49.60
2023-05-20T01:59:02.596Z,49.60
2023-05-20T02:01:30.962Z,49.60
2023-05-20T02:03:59.216Z,49.70
2023-05-20T02:06:27.568Z,49.70
2023-05-20T02:08:56.770Z,49.70
2023-05-20T02:11:26.523Z,49.80
2023-05-20T02:13:56.201Z,49.70
2023-05-20T02:16:24.446Z,49.80
2023-05-20T02:18:53.150Z,50.00
2023-05-20T02:21:21.471Z,49.90
2023-05-20T02:23:49.826Z,50.00
2023-05-20T02:26:18.226Z,50.00
2023-05-20T02:28:50.760Z,49.80
2023-05-20T02:31:19.378Z,49.80
2023-05-20T02:33:47.859Z,50.00
2023-05-20T02:36:17.222Z,50.00
2023-05-20T02:38:46.306Z,50.00
2023-05-20T02:41:14.622Z,50.00
2023-05-20T02:43:45.076Z,50.00
2023-05-20T02:46:15.810Z,49.90
2023-05-20T02:48:44.064Z,49.70
2023-05-20T02:51:12.536Z,49.70
2023-05-20T02:53:40.750Z,49.80
2023-05-20T02:56:09.740Z,49.70
2023-05-20T02:58:37.997Z,49.70
2023-05-20T03:01:07.812Z,49.70
2023-05-20T03:03:38.106Z,49.70
2023-05-20T03:06:06.431Z,49.60
2023-05-20T03:08:35.177Z,49.60
2023-05-20T03:11:04.833Z,49.70
2023-05-20T03:13:34.961Z,49.50
2023-05-20T03:16:03.344Z,49.60
2023-05-20T03:18:31.673Z,49.60
2023-05-20T03:21:02.692Z,49.50
2023-05-20T03:23:31.578Z,49.60
2023-05-20T03:25:59.865Z,49.60
2023-05-20T03:28:29.489Z,49.70
2023-05-20T03:30:57.760Z,49.70
2023-05-20T03:33:27.224Z,49.80
2023-05-20T03:35:55.958Z,49.80
2023-05-20T03:38:25.756Z,49.80
2023-05-20T03:40:54.032Z,49.80
2023-05-20T03:43:22.338Z,49.70
2023-05-20T03:45:50.675Z,49.70
2023-05-20T03:48:19.012Z,49.60
2023-05-20T03:50:47.268Z,49.60
2023-05-20T03:53:15.567Z,49.70
2023-05-20T03:55:45.272Z,49.60
2023-05-20T03:58:15.342Z,49.70
2023-05-20T04:00:44.125Z,49.80
2023-05-20T04:03:12.905Z,50.00
2023-05-20T04:05:41.630Z,50.30
2023-05-20T04:08:18.831Z,50.40
2023-05-20T04:10:50.428Z,50.40
2023-05-20T04:13:18.699Z,50.40
2023-05-20T04:15:48.301Z,50.20
2023-05-20T04:18:16.748Z,50.40
2023-05-20T04:20:45.425Z,50.30
2023-05-20T04:23:15.319Z,50.30
2023-05-20T04:25:44.654Z,50.20
2023-05-20T04:28:16.367Z,50.30
2023-05-20T04:30:46.139Z,50.30
2023-05-20T04:33:15.008Z,50.50
2023-05-20T04:35:44.226Z,50.50
2023-05-20T04:38:12.476Z,50.70
2023-05-20T04:40:41.145Z,50.80
2023-05-20T04:43:09.374Z,50.90
2023-05-20T04:45:40.356Z,50.80
2023-05-20T04:48:09.626Z,50.70
2023-05-20T04:50:39.201Z,50.70
2023-05-20T04:53:08.877Z,50.80
2023-05-20T04:55:39.103Z,50.70
2023-05-20T04:58:08.175Z,50.70
2023-05-20T05:00:38.712Z,50.70
2023-05-20T05:03:07.801Z,50.60
2023-05-20T05:05:37.030Z,50.50
2023-05-20T05:08:05.924Z,50.30
2023-05-20T05:10:37.058Z,50.20
2023-05-20T05:13:06.146Z,50.10
2023-05-20T05:15:34.932Z,49.90
2023-05-20T05:18:06.098Z,49.80
2023-05-20T05:20:35.764Z,49.90
2023-05-20T05:23:04.042Z,49.80
2023-05-20T05:25:32.632Z,50.00
2023-05-20T05:28:01.607Z,49.70
2023-05-20T05:30:29.858Z,49.80
2023-05-20T05:32:58.770Z,49.90
2023-05-20T05:35:28.506Z,50.00
2023-05-20T05:37:56.976Z,50.00
2023-05-20T05:40:25.218Z,49.90
2023-05-20T05:42:53.767Z,50.10
2023-05-20T05:45:23.203Z,49.80
2023-05-20T05:47:51.590Z,50.00
2023-05-20T05:50:20.164Z,50.00
2023-05-20T05:52:50.120Z,50.00
2023-05-20T05:55:19.312Z,50.40
2023-05-20T05:57:47.623Z,50.40
2023-05-20T06:00:18.776Z,50.80
2023-05-20T06:02:47.458Z,50.90
2023-05-20T06:05:29.792Z,51.00
2023-05-20T06:08:00.264Z,50.80
2023-05-20T06:10:31.494Z,51.20
2023-05-20T06:12:59.810Z,51.40
2023-05-20T06:15:30.354Z,51.30
2023-05-20T06:17:59.826Z,51.20
2023-05-20T06:20:28.711Z,51.40
2023-05-20T06:22:59.966Z,51.80
2023-05-20T06:25:37.388Z,52.00
2023-05-20T06:28:06.012Z,51.90
2023-05-20T06:30:34.439Z,51.90
2023-05-20T06:33:03.196Z,51.40
2023-05-20T06:35:34.814Z,51.80
2023-05-20T06:38:04.808Z,51.70
2023-05-20T06:40:33.257Z,51.80
2023-05-20T06:43:02.939Z,51.70
2023-05-20T06:46:06.344Z,51.80
2023-05-20T06:48:54.873Z,51.40
2023-05-20T06:51:23.863Z,51.40
2023-05-20T06:53:52.223Z,51.30
2023-05-20T06:56:22.531Z,51.10
2023-05-20T06:58:52.230Z,51.80
2023-05-20T07:01:20.662Z,51.70
2023-05-20T07:03:49.094Z,51.30
2023-05-20T07:06:17.467Z,51.70
2023-05-20T07:08:46.141Z,51.60
2023-05-20T07:11:14.810Z,51.90
2023-05-20T07:13:43.146Z,51.80
2023-05-20T07:16:12.806Z,51.60
2023-05-20T07:18:45.232Z,51.80
2023-05-20T07:21:13.654Z,52.00
2023-05-20T07:23:49.962Z,52.00
2023-05-20T07:26:18.360Z,52.20
2023-05-20T07:28:47.229Z,52.00
2023-05-20T07:31:17.269Z,51.80
2023-05-20T07:33:46.867Z,51.90
2023-05-20T07:36:15.100Z,52.10
2023-05-20T07:38:57.039Z,52.30
2023-05-20T07:41:32.698Z,52.60
2023-05-20T07:44:03.032Z,52.50
2023-05-20T07:46:33.030Z,52.40
2023-05-20T07:49:04.243Z,52.80
2023-05-20T07:51:32.796Z,52.60
2023-05-20T07:54:01.481Z,52.70
2023-05-20T07:56:30.673Z,52.70
2023-05-20T07:59:00.415Z,52.80
2023-05-20T08:01:34.707Z,52.50
2023-05-20T08:04:04.954Z,52.70
2023-05-20T08:06:33.483Z,52.40
2023-05-20T08:09:02.948Z,52.50
2023-05-20T08:11:35.001Z,52.10
2023-05-20T08:14:03.289Z,51.80
2023-05-20T08:16:39.178Z,51.70
2023-05-20T08:19:09.921Z,51.80
2023-05-20T08:21:40.730Z,52.10
2023-05-20T08:24:09.002Z,52.30
2023-05-20T08:26:38.198Z,52.20
2023-05-20T08:29:08.381Z,52.20
2023-05-20T08:31:38.319Z,51.90
2023-05-20T08:34:08.078Z,52.00
2023-05-20T08:36:36.794Z,52.30
2023-05-20T08:39:05.749Z,52.40
2023-05-20T08:41:34.216Z,51.40
2023-05-20T08:44:03.183Z,51.60
2023-05-20T08:46:34.027Z,51.60
2023-05-20T08:49:04.203Z,51.60
2023-05-20T08:51:34.443Z,51.90
2023-05-20T08:54:03.397Z,52.10
2023-05-20T08:56:33.864Z,51.90
2023-05-20T08:59:02.154Z,51.80
2023-05-20T09:01:33.730Z,51.80
2023-05-20T09:04:03.510Z,51.20
2023-05-20T09:06:43.685Z,51.70
2023-05-20T09:09:12.527Z,51.80
2023-05-20T09:11:41.816Z,51.90
2023-05-20T09:14:10.405Z,51.50
2023-05-20T09:16:40.974Z,51.90
2023-05-20T09:19:11.750Z,52.40
2023-05-20T09:21:43.077Z,52.50
2023-05-20T09:24:11.312Z,52.30
2023-05-20T09:26:40.052Z,52.60
2023-05-20T09:29:09.968Z,53.00
2023-05-20T09:31:38.956Z,52.20
2023-05-20T09:34:08.048Z,52.00
2023-05-20T09:36:40.467Z,51.70
2023-05-20T09:39:12.217Z,51.90
2023-05-20T09:41:47.835Z,52.10
2023-05-20T09:44:16.793Z,51.60
2023-05-20T09:46:45.720Z,51.80
2023-05-20T09:49:15.278Z,51.60
2023-05-20T09:51:46.821Z,51.30
2023-05-20T09:54:15.943Z,51.60
2023-05-20T09:56:45.268Z,51.60
2023-05-20T09:59:16.140Z,51.40
2023-05-20T10:01:45.062Z,51.90
2023-05-20T10:04:16.615Z,51.80
2023-05-20T10:07:11.718Z,50.90
2023-05-20T10:09:55.392Z,50.90
2023-05-20T10:12:33.184Z,50.60
2023-05-20T10:15:11.544Z,50.40
2023-05-20T10:17:45.652Z,50.40
2023-05-20T10:20:14.361Z,50.10
2023-05-20T10:22:45.319Z,50.60
2023-05-20T10:25:25.865Z,50.40
2023-05-20T10:28:04.839Z,50.00
2023-05-20T10:30:33.279Z,50.30
2023-05-20T10:33:07.067Z,50.00
2023-05-20T10:35:49.199Z,50.10
2023-05-20T10:38:19.074Z,50.10
2023-05-20T10:40:47.304Z,49.80
2023-05-20T10:43:16.884Z,50.00
2023-05-20T10:45:55.620Z,50.70
2023-05-20T10:48:29.974Z,50.30
2023-05-20T10:50:59.939Z,49.90
2023-05-20T10:53:34.382Z,50.50
2023-05-20T10:56:03.795Z,50.60
2023-05-20T10:58:39.119Z,50.50
2023-05-20T11:01:07.484Z,50.20
2023-05-20T11:03:37.333Z,50.30
2023-05-20T11:06:14.025Z,50.10
2023-05-20T11:08:45.594Z,50.80
2023-05-20T11:11:14.955Z,50.00
2023-05-20T11:13:43.315Z,49.80
2023-05-20T11:16:11.663Z,49.90
2023-05-20T11:18:39.926Z,50.20
2023-05-20T11:21:08.282Z,49.70
2023-05-20T11:23:38.723Z,50.00
2023-05-20T11:26:12.971Z,50.10
2023-05-20T11:28:41.965Z,50.00
2023-05-20T11:31:11.440Z,49.80
2023-05-20T11:33:43.360Z,49.70
2023-05-20T11:36:26.987Z,50.30
2023-05-20T11:38:56.435Z,50.00
2023-05-20T11:41:27.513Z,49.60
2023-05-20T11:44:02.438Z,49.60
2023-05-20T11:46:30.711Z,49.40
2023-05-20T11:48:59.284Z,49.90
2023-05-20T11:51:29.137Z,50.00
2023-05-20T11:54:02.822Z,50.50
2023-05-20T11:56:32.977Z,51.40
2023-05-20T11:59:02.307Z,51.10
2023-05-20T12:01:33.783Z,51.60
2023-05-20T12:04:02.284Z,50.70
2023-05-20T12:06:31.044Z,50.30
2023-05-20T12:09:03.956Z,50.00
2023-05-20T12:11:33.768Z,49.80
2023-05-20T12:14:02.212Z,50.10
2023-05-20T12:16:32.057Z,50.00
2023-05-20T12:19:00.652Z,49.60
2023-05-20T12:21:32.704Z,49.40
2023-05-20T12:24:01.654Z,49.40
2023-05-20T12:26:31.183Z,49.90
2023-05-20T12:29:00.944Z,49.50
2023-05-20T12:31:29.681Z,49.60
2023-05-20T12:33:59.227Z,50.10
2023-05-20T12:36:27.795Z,49.80
2023-05-20T12:38:56.144Z,48.70
2023-05-20T12:41:24.544Z,48.80
2023-05-20T12:43:52.781Z,48.70
2023-05-20T12:46:22.476Z,49.40
2023-05-20T12:48:50.832Z,48.90
2023-05-20T12:51:20.246Z,48.80
2023-05-20T12:53:48.603Z,48.60
2023-05-20T12:56:16.950Z,49.20
2023-05-20T12:58:45.171Z,49.20
2023-05-20T13:01:13.500Z,48.80
2023-05-20T13:03:43.233Z,48.50
2023-05-20T13:06:11.534Z,48.10
2023-05-20T13:08:42.486Z,47.70
2023-05-20T13:11:10.706Z,48.00
2023-05-20T13:13:38.928Z,48.00
2023-05-20T13:16:07.484Z,48.40
2023-05-20T13:18:38.503Z,48.60
2023-05-20T13:21:10.203Z,48.10
2023-05-20T13:23:38.468Z,48.20
2023-05-20T13:26:06.763Z,48.50
2023-05-20T13:28:34.961Z,48.50
2023-05-20T13:31:03.709Z,48.70
2023-05-20T13:33:32.057Z,48.80
2023-05-20T13:36:00.330Z,48.70
2023-05-20T13:38:31.870Z,48.30
2023-05-20T13:41:00.631Z,48.10
2023-05-20T13:43:30.074Z,48.10
2023-05-20T13:45:58.366Z,47.70
2023-05-20T13:48:26.726Z,47.90
2023-05-20T13:50:54.994Z,47.90
2023-05-20T13:53:23.762Z,47.90
2023-05-20T13:55:53.386Z,47.70
2023-05-20T13:58:21.727Z,48.80
2023-05-20T14:00:52.058Z,48.30
2023-05-20T14:03:20.553Z,48.10
2023-05-20T14:05:48.870Z,47.80
2023-05-20T14:08:17.186Z,47.60
2023-05-20T14:10:45.400Z,48.00
2023-05-20T14:13:15.215Z,47.80
2023-05-20T14:15:44.145Z,47.70
2023-05-20T14:18:12.436Z,47.80
2023-05-20T14:20:43.805Z,47.10
2023-05-20T14:23:12.168Z,47.30
2023-05-20T14:25:41.782Z,47.20
2023-05-20T14:28:10.005Z,47.10
2023-05-20T14:30:39.903Z,47.30
2023-05-20T14:33:08.208Z,46.80
2023-05-20T14:35:36.602Z,46.50
2023-05-20T14:38:04.847Z,46.50
2023-05-20T14:40:33.297Z,46.90
2023-05-20T14:43:02.060Z,46.90
2023-05-20T14:45:30.282Z,46.80
2023-05-20T14:48:00.064Z,47.00
2023-05-20T14:50:28.485Z,47.10
2023-05-20T14:52:56.720Z,47.70
2023-05-20T14:55:25.021Z,47.20
2023-05-20T14:57:53.279Z,47.80
2023-05-20T15:00:21.962Z,48.00
2023-05-20T15:02:50.291Z,47.40
2023-05-20T15:05:20.214Z,47.00
2023-05-20T15:07:48.436Z,47.50
2023-05-20T15:10:16.720Z,47.30
2023-05-20T15:12:45.813Z,47.00
2023-05-20T15:15:14.075Z,47.20
2023-05-20T15:17:42.356Z,47.70
2023-05-20T15:20:11.528Z,47.30
2023-05-20T15:22:41.670Z,47.50
2023-05-20T15:25:10.029Z,47.60
2023-05-20T15:27:38.270Z,47.40
2023-05-20T15:30:08.927Z,47.40
2023-05-20T15:32:37.263Z,47.10
2023-05-20T15:35:06.461Z,47.10
2023-05-20T15:37:34.679Z,46.60
2023-05-20T15:40:04.600Z,47.40
2023-05-20T15:42:32.868Z,47.00
2023-05-20T15:45:04.285Z,46.60
2023-05-20T15:47:32.600Z,46.70
2023-05-20T15:50:02.255Z,46.90
2023-05-20T15:52:33.379Z,46.90
2023-05-20T15:55:01.688Z,46.60
2023-05-20T15:57:31.516Z,47.00
2023-05-20T15:59:59.853Z,47.10
2023-05-20T16:02:28.243Z,47.20
2023-05-20T16:04:56.752Z,47.20
2023-05-20T16:07:25.161Z,46.50
2023-05-20T16:09:54.123Z,46.30
2023-05-20T16:12:22.348Z,46.40
2023-05-20T16:14:51.925Z,46.60
2023-05-20T16:17:21.293Z,46.80
2023-05-20T16:19:51.680Z,47.00
2023-05-20T16:22:20.346Z,47.00
2023-05-20T16:24:51.315Z,47.40
2023-05-20T16:27:19.585Z,47.90
2023-05-20T16:29:47.813Z,47.80
2023-05-20T16:32:17.384Z,47.90
2023-05-20T16:34:47.385Z,48.50
2023-05-20T16:37:16.199Z,48.70
2023-05-20T16:39:44.517Z,48.60
2023-05-20T16:42:12.806Z,49.00
2023-05-20T16:44:41.017Z,48.30
2023-05-20T16:47:10.279Z,48.30
2023-05-20T16:49:40.647Z,48.60
2023-05-20T16:52:09.722Z,48.80
2023-05-20T16:54:38.135Z,48.60
2023-05-20T16:57:07.925Z,48.60
2023-05-20T16:59:36.383Z,48.10
2023-05-20T17:02:04.718Z,48.30
2023-05-20T17:04:32.973Z,48.10
2023-05-20T17:07:02.697Z,48.10
2023-05-20T17:09:31.510Z,48.00
2023-05-20T17:11:59.736Z,48.10
2023-05-20T17:14:28.020Z,48.30
2023-05-20T17:16:56.458Z,48.60
2023-05-20T17:19:24.815Z,48.40
2023-05-20T17:21:53.113Z,48.30
2023-05-20T17:24:22.750Z,48.50
2023-05-20T17:26:51.012Z,48.50
2023-05-20T17:29:19.282Z,48.30
2023-05-20T17:31:47.908Z,48.00
2023-05-20T17:34:16.318Z,48.00
2023-05-20T17:36:44.735Z,48.50
2023-05-20T17:39:13.720Z,48.10
2023-05-20T17:41:43.661Z,48.20
2023-05-20T17:44:12.013Z,48.10
2023-05-20T17:46:40.642Z,48.00
2023-05-20T17:49:11.448Z,47.90
2023-05-20T17:51:39.915Z,47.90
2023-05-20T17:54:08.151Z,47.70
2023-05-20T17:56:36.420Z,48.00
2023-05-20T17:59:06.103Z,48.30
2023-05-20T18:01:36.159Z,48.30
2023-05-20T18:04:05.586Z,48.70
2023-05-20T18:06:34.688Z,47.80
2023-05-20T18:09:04.682Z,46.80
2023-05-20T18:11:33.413Z,47.30
2023-05-20T18:14:01.922Z,46.70
2023-05-20T18:16:31.776Z,46.90
2023-05-20T18:19:00.151Z,46.80
2023-05-20T18:21:31.512Z,46.30
2023-05-20T18:23:59.879Z,46.00
2023-05-20T18:26:28.340Z,46.10
2023-05-20T18:28:59.560Z,45.90
2023-05-20T18:31:29.972Z,46.00
2023-05-20T18:33:59.862Z,46.10
2023-05-20T18:36:30.069Z,46.30
2023-05-20T18:38:58.576Z,46.40
2023-05-20T18:41:32.394Z,46.50
2023-05-20T18:44:05.695Z,46.60
2023-05-20T18:46:34.375Z,47.10
2023-05-20T18:49:04.024Z,47.10
2023-05-20T18:51:33.626Z,47.30
2023-05-20T18:54:01.818Z,46.90
2023-05-20T18:56:32.452Z,46.80
2023-05-20T18:59:03.036Z,46.90
2023-05-20T19:01:33.882Z,46.80
2023-05-20T19:04:03.640Z,46.90
2023-05-20T19:06:35.130Z,47.00
2023-05-20T19:09:03.678Z,47.00
2023-05-20T19:11:32.139Z,47.00
2023-05-20T19:14:00.806Z,46.80
2023-05-20T19:16:31.379Z,47.00
2023-05-20T19:18:59.679Z,46.90
2023-05-20T19:21:32.442Z,47.30
2023-05-20T19:24:01.005Z,47.30
2023-05-20T19:26:29.390Z,47.60
2023-05-20T19:28:58.136Z,47.30
2023-05-20T19:31:26.648Z,47.30
2023-05-20T19:33:55.461Z,47.20
2023-05-20T19:36:23.723Z,47.20
2023-05-20T19:38:53.408Z,47.40
2023-05-20T19:41:22.648Z,47.50
2023-05-20T19:43:53.701Z,47.50
2023-05-20T19:46:22.259Z,47.50
2023-05-20T19:48:50.513Z,47.40
2023-05-20T19:51:20.652Z,47.40
2023-05-20T19:53:48.996Z,47.50
2023-05-20T19:56:20.086Z,47.70
2023-05-20T19:58:48.688Z,47.90
2023-05-20T20:01:17.633Z,48.20
2023-05-20T20:03:46.357Z,48.10
2023-05-20T20:06:14.799Z,48.30
2023-05-20T20:08:43.042Z,48.40
2023-05-20T20:11:11.311Z,48.50
2023-05-20T20:13:43.719Z,48.30
2023-05-20T20:16:12.023Z,48.30
2023-05-20T20:18:43.130Z,48.20
2023-05-20T20:21:11.443Z,48.20
2023-05-20T20:23:40.246Z,48.00
2023-05-20T20:26:09.760Z,47.60
2023-05-20T20:28:40.066Z,47.70
2023-05-20T20:31:09.749Z,48.00
2023-05-20T20:33:37.999Z,48.10
2023-05-20T20:36:08.843Z,48.20
2023-05-20T20:38:37.580Z,48.00
2023-05-20T20:41:05.871Z,47.80
2023-05-20T20:43:34.741Z,47.90
2023-05-20T20:46:03.476Z,48.00
2023-05-20T20:48:34.515Z,48.00
2023-05-20T20:51:02.864Z,48.20
2023-05-20T20:53:31.277Z,48.20
2023-05-20T20:55:59.653Z,48.40
2023-05-20T20:58:28.258Z,48.50
2023-05-20T21:00:56.552Z,48.40
2023-05-20T21:03:26.416Z,48.90
2023-05-20T21:05:56.177Z,48.10
2023-05-20T21:08:27.667Z,48.00
2023-05-20T21:11:01.149Z,48.10
2023-05-20T21:13:29.834Z,48.10
2023-05-20T21:15:58.563Z,48.00
2023-05-20T21:18:27.589Z,47.90
2023-05-20T21:20:57.602Z,47.90
2023-05-20T21:23:25.909Z,48.00
2023-05-20T21:25:54.128Z,48.00
2023-05-20T21:28:22.446Z,48.00
2023-05-20T21:30:52.980Z,48.00
2023-05-20T21:33:21.468Z,47.80
2023-05-20T21:35:49.702Z,47.90
2023-05-20T21:38:19.383Z,47.90
2023-05-20T21:40:47.636Z,47.90
2023-05-20T21:43:18.829Z,47.70
2023-05-20T21:45:47.061Z,47.80
2023-05-20T21:48:16.378Z,47.70
2023-05-20T21:50:45.293Z,47.80
2023-05-20T21:53:13.594Z,47.80
2023-05-20T21:55:43.205Z,47.60
2023-05-20T21:58:11.420Z,47.80
2023-05-20T22:00:42.786Z,48.00
2023-05-20T22:03:12.227Z,48.20
2023-05-20T22:05:40.897Z,48.50
2023-05-20T22:08:10.031Z,48.90
2023-05-20T22:10:38.738Z,48.80
2023-05-20T22:13:10.888Z,49.00
2023-05-20T22:15:39.156Z,49.50
2023-05-20T22:18:07.991Z,49.70
2023-05-20T22:20:38.699Z,49.80
2023-05-20T22:23:06.951Z,49.90
2023-05-20T22:25:37.275Z,50.00
2023-05-20T22:28:06.129Z,49.80
2023-05-20T22:30:35.826Z,50.00
2023-05-20T22:33:04.144Z,50.20
2023-05-20T22:35:32.382Z,50.30
2023-05-20T22:38:02.410Z,50.50
2023-05-20T22:40:30.688Z,50.50
2023-05-20T22:43:00.326Z,50.90
2023-05-20T22:45:29.613Z,50.90
2023-05-20T22:47:59.340Z,51.20
2023-05-20T22:50:27.701Z,51.30
2023-05-20T22:52:55.988Z,52.00
2023-05-20T22:55:24.381Z,52.20
2023-05-20T22:57:52.628Z,52.10
2023-05-20T23:00:21.335Z,52.30
2023-05-20T23:02:52.494Z,52.00
2023-05-20T23:05:22.243Z,51.90
2023-05-20T23:07:52.584Z,51.90
2023-05-20T23:10:24.301Z,51.80
2023-05-20T23:12:52.690Z,51.90
2023-05-20T23:15:25.093Z,52.00
2023-05-20T23:17:53.404Z,51.70
2023-05-20T23:20:23.146Z,51.50
2023-05-20T23:22:51.606Z,51.70
2023-05-20T23:25:19.963Z,51.90
2023-05-20T23:27:48.236Z,51.80
2023-05-20T23:30:16.567Z,51.50
2023-05-20T23:32:45.329Z,51.50
2023-05-20T23:35:13.603Z,51.60
2023-05-20T23:37:43.233Z,51.40
2023-05-20T23:40:12.190Z,51.40
2023-05-20T23:42:40.652Z,51.40
2023-05-20T23:45:09.840Z,51.40
2023-05-20T23:47:38.224Z,51.80
2023-05-20T23:50:13.165Z,51.80
2023-05-20T23:52:42.902Z,51.90
2023-05-20T23:55:12.860Z,51.80
2023-05-20T23:57:41.368Z,51.60
